Terminal Aerodrome Forecast
Issued by NWS Wilmington, OH

Current Version | Previous Version | Graphics & Text | Print | Product List | Glossary On
Versions: 1 2 3 4 5 6 7 8 9 10 11 12 13 14 15 16 17 18 19 20 21 22 23 24 25 26 27 28 29 30 31 32 33 34
946
FTUS41 KILN 302332
TAFCVG
TAF
KCVG 302332Z 0100/0206 15008KT 4SM -SHRA BKN015
      TEMPO 0100/0104 2SM SHRA
     FM010700 18006KT 4SM BR OVC006
     FM011400 23005KT P6SM BKN015
     FM011700 24006KT P6SM BKN035
     FM012000 26005KT P6SM VCSH SCT025 BKN040
     FM020200 28005KT P6SM SCT050 BKN080=

USA.gov is the U.S. government's official web portal to all federal, state and local government web resources and services.